MSC Vigo — A8ZV8 — position and weather

sailwx.info

Track history (hours):
 
Tides and Currents Weather Stations Pressure Air Temp Water Temp Dewpoint Dewpoint Depression Visibility Wind Speed Wind Dir Waves Ship Positions

MSC Vigo

Last reported at 2014-Aug-18 12:00 UTC. Time now 2014-Aug-20 08:49 UTC.
Position N 29°36' W 013°36'.

Length 270 m; draft 10.9 m.

Type: Ship (hazmat cat A). MMSI: 636092276.

Wind from 030 at 13 knots

Waves 0.5 meters (2 feet), 8 second period

Barometer 1015.0 mb
Air temperature 22.0 ° C
Visibility: greater than 10.8 NM
Dewpoint 18.0 ° C
Water temperature 22.0 ° C

Date/timePositionNaut miles runAvg speedWind from/ knotsBaromVisibWave heightAir tempDewpointWater temp
2014-Aug-18 12:00N 29°36' W 013°36'   030 / 131015.010.8 0.522.018.022.0
2014-Aug-14 21:33N 40°42' E 001°43'2820.0
2014-Aug-14 20:08N 41°06' E 002°03'1318.0
2014-Aug-14 19:26N 41°17' E 002°10'5 0.3
2014-Aug-14 03:24N 41°15' E 002°17'1313.7
2014-Aug-14 02:26N 41°22' E 002°32'1618.3
2014-Aug-14 01:33N 41°29' E 002°51'1918.6
2014-Aug-14 00:33N 41°39' E 003°12'1918.7
2014-Aug-13 23:33N 41°52' E 003°29'1919.0
2014-Aug-13 22:33N 42°07' E 003°46'1818.1
2014-Aug-13 21:33N 42°21' E 004°02'1818.4
2014-Aug-13 20:33N 42°35' E 004°18'1919.2
2014-Aug-13 19:33N 42°49' E 004°35'2019.5
2014-Aug-13 18:33N 43°04' E 004°52'1716.9
2014-Aug-13 17:33N 43°21' E 004°58'7 7.2
2014-Aug-13 16:33N 43°25' E 004°50'0 0.0
2014-Aug-13 15:31N 43°25' E 004°50'0 0.0
2014-Aug-13 14:31N 43°25' E 004°50'0 0.0
2014-Aug-13 13:31N 43°25' E 004°50'0 0.0
2014-Aug-13 12:31N 43°25' E 004°50'0 0.0
2014-Aug-13 11:31N 43°25' E 004°50'0 0.0
2014-Aug-13 10:31N 43°25' E 004°50'0 0.0
2014-Aug-13 09:31N 43°25' E 004°50'0 0.0
2014-Aug-13 08:31N 43°25' E 004°50'0 0.0
2014-Aug-13 07:31N 43°25' E 004°50'0 0.0
2014-Aug-13 06:28N 43°25' E 004°50'0 0.0
2014-Aug-13 05:31N 43°25' E 004°50'0 0.0
2014-Aug-13 04:31N 43°25' E 004°50'0 0.0
2014-Aug-13 03:31N 43°25' E 004°50'0 0.0
2014-Aug-13 02:31N 43°25' E 004°50'1 1.2
2014-Aug-13 01:33N 43°24' E 004°52'1010.3
2014-Aug-13 00:33N 43°16' E 005°01'1413.8
2014-Aug-12 23:33N 43°06' E 005°14'1515.4
2014-Aug-12 22:33N 42°58' E 005°31'1616.4
2014-Aug-12 21:33N 42°49' E 005°50'1616.4
2014-Aug-12 20:34N 42°50' E 006°12'1616.1
2014-Aug-12 19:34N 42°52' E 006°34'1616.4
2014-Aug-12 18:34N 43°02' E 006°52'1615.9
2014-Aug-12 17:34N 43°11' E 007°09'1615.5
2014-Aug-12 16:33N 43°20' E 007°27'1616.5
2014-Aug-12 15:33N 43°30' E 007°45'1716.8
2014-Aug-12 14:34N 43°40' E 008°04'1716.6
2014-Aug-12 13:33N 43°51' E 008°21'1616.3
2014-Aug-12 12:33N 44°05' E 008°33'1615.7
2014-Aug-12 11:33N 44°19' E 008°43'7 6.5
2014-Aug-12 10:28N 44°25' E 008°47'0 0.0
2014-Aug-12 09:22N 44°25' E 008°47'0 0.0
2014-Aug-12 08:31N 44°25' E 008°47'0 0.0
2014-Aug-11 22:13N 44°25' E 008°47'0 0.0
2014-Aug-11 16:31N 44°25' E 008°47'0 0.0
2014-Aug-11 15:31N 44°25' E 008°47'0 0.0
2014-Aug-11 14:31N 44°25' E 008°47'0 0.0
2014-Aug-11 13:25N 44°25' E 008°47'0 0.0
2014-Aug-11 12:31N 44°25' E 008°47'0 0.0
2014-Aug-11 11:31N 44°25' E 008°47'0 0.0
2014-Aug-11 10:31N 44°25' E 008°47'0 0.0
2014-Aug-11 09:31N 44°25' E 008°47'0 0.0
2014-Aug-11 08:31N 44°25' E 008°47'0 0.0
2014-Aug-11 06:19N 44°25' E 008°47'0 0.0
2014-Aug-11 05:31N 44°25' E 008°47'0 0.0
2014-Aug-11 03:25N 44°25' E 008°47'0 0.0
2014-Aug-11 02:31N 44°25' E 008°47'0 0.0
2014-Aug-10 22:25N 44°25' E 008°47'0 0.0
2014-Aug-10 21:25N 44°25' E 008°47'0 0.0
2014-Aug-10 20:31N 44°25' E 008°47'0 0.0
2014-Aug-10 19:31N 44°25' E 008°47'0 0.0
2014-Aug-10 18:31N 44°25' E 008°47'1 1.2
2014-Aug-10 17:33N 44°25' E 008°45'1010.3
2014-Aug-10 16:34N 44°15' E 008°51'1716.7
2014-Aug-10 15:33N 44°04' E 009°08'1717.3
2014-Aug-10 14:33N 43°53' E 009°26'1717.0
2014-Aug-10 13:34N 43°41' E 009°44'1818.0
2014-Aug-10 12:34N 43°30' E 010°03'1110.9
2014-Aug-10 11:33N 43°33' E 010°18'1 1.2
2014-Aug-10 10:33N 43°35' E 010°18'0 0.0
2014-Aug-10 09:33N 43°35' E 010°18'0 0.0
2014-Aug-10 08:33N 43°35' E 010°18'0 0.0
2014-Aug-10 07:30N 43°35' E 010°18'0 0.0
2014-Aug-10 06:33N 43°35' E 010°18'0 0.0
2014-Aug-10 05:33N 43°35' E 010°18'0 0.0
2014-Aug-10 04:30N 43°35' E 010°18'0 0.0
2014-Aug-10 03:32N 43°35' E 010°18'0 0.0
2014-Aug-10 02:33N 43°35' E 010°18'0 0.0
2014-Aug-10 01:33N 43°35' E 010°18'0 0.0
2014-Aug-10 00:32N 43°35' E 010°18'0 0.0
2014-Aug-09 23:33N 43°35' E 010°18'0 0.0
2014-Aug-09 22:30N 43°35' E 010°18'0 0.0
2014-Aug-09 21:33N 43°35' E 010°18'0 0.0
2014-Aug-09 20:32N 43°35' E 010°18'0 0.0
2014-Aug-09 19:29N 43°35' E 010°18'0 0.0
2014-Aug-09 18:32N 43°35' E 010°18'0 0.0
2014-Aug-09 17:29N 43°35' E 010°18'0 0.0
2014-Aug-09 16:32N 43°35' E 010°18'0 0.0
2014-Aug-09 15:33N 43°35' E 010°18'0 0.0
2014-Aug-09 14:29N 43°35' E 010°18'0 0.0
2014-Aug-09 13:29N 43°35' E 010°18'0 0.0
2014-Aug-09 12:32N 43°35' E 010°18'0 0.0
2014-Aug-09 11:33N 43°35' E 010°18'0 0.0
2014-Aug-09 10:30N 43°35' E 010°18'0 0.0
2014-Aug-09 09:32N 43°35' E 010°18'0 0.0
2014-Aug-09 08:29N 43°35' E 010°18'2 1.8
2014-Aug-09 07:33N 43°33' E 010°17'4 3.7
2014-Aug-09 06:33N 43°30' E 010°14'0 0.4
2014-Aug-09 05:33N 43°30' E 010°14'6 6.0
2014-Aug-09 04:33N 43°24' E 010°12'10 9.6
2014-Aug-09 03:33N 43°15' E 010°07'1211.8
2014-Aug-09 02:33N 43°04' E 010°02'1211.6
2014-Aug-09 01:33N 42°53' E 009°57'1211.8
2014-Aug-09 00:33N 42°41' E 009°56'1212.1
2014-Aug-08 23:33N 42°29' E 009°55'1411.5
2014-Aug-08 22:19N 42°15' E 010°00'912.4
2014-Aug-08 21:33N 42°09' E 010°10'1712.4
2014-Aug-08 20:11N 41°58' E 010°27'812.1
2014-Aug-08 19:34N 41°53' E 010°35'1211.9
2014-Aug-08 18:32N 41°45' E 010°48'1119.4
2014-Aug-08 18:00N 41°36' E 010°54'510.4 250 / 81015.010.8 0.525.521.0
2014-Aug-08 17:32N 41°38' E 010°60'  
Track history (hours):
 
Tides and Currents Weather Stations Pressure Air Temp Water Temp Dewpoint Dewpoint Depression Visibility Wind Speed Wind Dir Waves Ship Positions

MSC Vigo

Last reported at 2014-Aug-18 12:00 UTC. Time now 2014-Aug-20 08:49 UTC.
Position N 29°36' W 013°36'.

Length 270 m; draft 10.9 m.

Type: Ship (hazmat cat A). MMSI: 636092276.

Wind from 030 at 13 knots

Waves 0.5 meters (2 feet), 8 second period

Barometer 1015.0 mb
Air temperature 22.0 ° C
Visibility: greater than 10.8 NM
Dewpoint 18.0 ° C
Water temperature 22.0 ° C

Date/timePositionNaut miles runAvg speedWind from/ knotsBaromVisibWave heightAir tempDewpointWater temp
2014-Aug-18 12:00N 29°36' W 013°36'   030 / 131015.010.8 0.522.018.022.0
2014-Aug-14 21:33N 40°42' E 001°43'2820.0
2014-Aug-14 20:08N 41°06' E 002°03'1318.0
2014-Aug-14 19:26N 41°17' E 002°10'5 0.3
2014-Aug-14 03:24N 41°15' E 002°17'1313.7
2014-Aug-14 02:26N 41°22' E 002°32'1618.3
2014-Aug-14 01:33N 41°29' E 002°51'1918.6
2014-Aug-14 00:33N 41°39' E 003°12'1918.7
2014-Aug-13 23:33N 41°52' E 003°29'1919.0
2014-Aug-13 22:33N 42°07' E 003°46'1818.1
2014-Aug-13 21:33N 42°21' E 004°02'1818.4
2014-Aug-13 20:33N 42°35' E 004°18'1919.2
2014-Aug-13 19:33N 42°49' E 004°35'2019.5
2014-Aug-13 18:33N 43°04' E 004°52'1716.9
2014-Aug-13 17:33N 43°21' E 004°58'7 7.2
2014-Aug-13 16:33N 43°25' E 004°50'0 0.0
2014-Aug-13 15:31N 43°25' E 004°50'0 0.0
2014-Aug-13 14:31N 43°25' E 004°50'0 0.0
2014-Aug-13 13:31N 43°25' E 004°50'0 0.0
2014-Aug-13 12:31N 43°25' E 004°50'0 0.0
2014-Aug-13 11:31N 43°25' E 004°50'0 0.0
2014-Aug-13 10:31N 43°25' E 004°50'0 0.0
2014-Aug-13 09:31N 43°25' E 004°50'0 0.0
2014-Aug-13 08:31N 43°25' E 004°50'0 0.0
2014-Aug-13 07:31N 43°25' E 004°50'0 0.0
2014-Aug-13 06:28N 43°25' E 004°50'0 0.0
2014-Aug-13 05:31N 43°25' E 004°50'0 0.0
2014-Aug-13 04:31N 43°25' E 004°50'0 0.0
2014-Aug-13 03:31N 43°25' E 004°50'0 0.0
2014-Aug-13 02:31N 43°25' E 004°50'1 1.2
2014-Aug-13 01:33N 43°24' E 004°52'1010.3
2014-Aug-13 00:33N 43°16' E 005°01'1413.8
2014-Aug-12 23:33N 43°06' E 005°14'1515.4
2014-Aug-12 22:33N 42°58' E 005°31'1616.4
2014-Aug-12 21:33N 42°49' E 005°50'1616.4
2014-Aug-12 20:34N 42°50' E 006°12'1616.1
2014-Aug-12 19:34N 42°52' E 006°34'1616.4
2014-Aug-12 18:34N 43°02' E 006°52'1615.9
2014-Aug-12 17:34N 43°11' E 007°09'1615.5
2014-Aug-12 16:33N 43°20' E 007°27'1616.5
2014-Aug-12 15:33N 43°30' E 007°45'1716.8
2014-Aug-12 14:34N 43°40' E 008°04'1716.6
2014-Aug-12 13:33N 43°51' E 008°21'1616.3
2014-Aug-12 12:33N 44°05' E 008°33'1615.7
2014-Aug-12 11:33N 44°19' E 008°43'7 6.5
2014-Aug-12 10:28N 44°25' E 008°47'0 0.0
2014-Aug-12 09:22N 44°25' E 008°47'0 0.0
2014-Aug-12 08:31N 44°25' E 008°47'0 0.0
2014-Aug-11 22:13N 44°25' E 008°47'0 0.0
2014-Aug-11 16:31N 44°25' E 008°47'0 0.0
2014-Aug-11 15:31N 44°25' E 008°47'0 0.0
2014-Aug-11 14:31N 44°25' E 008°47'0 0.0
2014-Aug-11 13:25N 44°25' E 008°47'0 0.0
2014-Aug-11 12:31N 44°25' E 008°47'0 0.0
2014-Aug-11 11:31N 44°25' E 008°47'0 0.0
2014-Aug-11 10:31N 44°25' E 008°47'0 0.0
2014-Aug-11 09:31N 44°25' E 008°47'0 0.0
2014-Aug-11 08:31N 44°25' E 008°47'0 0.0
2014-Aug-11 06:19N 44°25' E 008°47'0 0.0
2014-Aug-11 05:31N 44°25' E 008°47'0 0.0
2014-Aug-11 03:25N 44°25' E 008°47'0 0.0
2014-Aug-11 02:31N 44°25' E 008°47'0 0.0
2014-Aug-10 22:25N 44°25' E 008°47'0 0.0
2014-Aug-10 21:25N 44°25' E 008°47'0 0.0
2014-Aug-10 20:31N 44°25' E 008°47'0 0.0
2014-Aug-10 19:31N 44°25' E 008°47'0 0.0
2014-Aug-10 18:31N 44°25' E 008°47'1 1.2
2014-Aug-10 17:33N 44°25' E 008°45'1010.3
2014-Aug-10 16:34N 44°15' E 008°51'1716.7
2014-Aug-10 15:33N 44°04' E 009°08'1717.3
2014-Aug-10 14:33N 43°53' E 009°26'1717.0
2014-Aug-10 13:34N 43°41' E 009°44'1818.0
2014-Aug-10 12:34N 43°30' E 010°03'1110.9
2014-Aug-10 11:33N 43°33' E 010°18'1 1.2
2014-Aug-10 10:33N 43°35' E 010°18'0 0.0
2014-Aug-10 09:33N 43°35' E 010°18'0 0.0
2014-Aug-10 08:33N 43°35' E 010°18'0 0.0
2014-Aug-10 07:30N 43°35' E 010°18'0 0.0
2014-Aug-10 06:33N 43°35' E 010°18'0 0.0
2014-Aug-10 05:33N 43°35' E 010°18'0 0.0
2014-Aug-10 04:30N 43°35' E 010°18'0 0.0
2014-Aug-10 03:32N 43°35' E 010°18'0 0.0
2014-Aug-10 02:33N 43°35' E 010°18'0 0.0
2014-Aug-10 01:33N 43°35' E 010°18'0 0.0
2014-Aug-10 00:32N 43°35' E 010°18'0 0.0
2014-Aug-09 23:33N 43°35' E 010°18'0 0.0
2014-Aug-09 22:30N 43°35' E 010°18'0 0.0
2014-Aug-09 21:33N 43°35' E 010°18'0 0.0
2014-Aug-09 20:32N 43°35' E 010°18'0 0.0
2014-Aug-09 19:29N 43°35' E 010°18'0 0.0
2014-Aug-09 18:32N 43°35' E 010°18'0 0.0
2014-Aug-09 17:29N 43°35' E 010°18'0 0.0
2014-Aug-09 16:32N 43°35' E 010°18'0 0.0
2014-Aug-09 15:33N 43°35' E 010°18'0 0.0
2014-Aug-09 14:29N 43°35' E 010°18'0 0.0
2014-Aug-09 13:29N 43°35' E 010°18'0 0.0
2014-Aug-09 12:32N 43°35' E 010°18'0 0.0
2014-Aug-09 11:33N 43°35' E 010°18'0 0.0
2014-Aug-09 10:30N 43°35' E 010°18'0 0.0
2014-Aug-09 09:32N 43°35' E 010°18'0 0.0
2014-Aug-09 08:29N 43°35' E 010°18'2 1.8
2014-Aug-09 07:33N 43°33' E 010°17'4 3.7
2014-Aug-09 06:33N 43°30' E 010°14'0 0.4
2014-Aug-09 05:33N 43°30' E 010°14'6 6.0
2014-Aug-09 04:33N 43°24' E 010°12'10 9.6
2014-Aug-09 03:33N 43°15' E 010°07'1211.8
2014-Aug-09 02:33N 43°04' E 010°02'1211.6
2014-Aug-09 01:33N 42°53' E 009°57'1211.8
2014-Aug-09 00:33N 42°41' E 009°56'1212.1
2014-Aug-08 23:33N 42°29' E 009°55'1411.5
2014-Aug-08 22:19N 42°15' E 010°00'912.4
2014-Aug-08 21:33N 42°09' E 010°10'1712.4
2014-Aug-08 20:11N 41°58' E 010°27'812.1
2014-Aug-08 19:34N 41°53' E 010°35'1211.9
2014-Aug-08 18:32N 41°45' E 010°48'1119.4
2014-Aug-08 18:00N 41°36' E 010°54'510.4 250 / 81015.010.8 0.525.521.0
2014-Aug-08 17:32N 41°38' E 010°60'  

Dump ship's entire track history